Time;durP1;ratioP1;P1;durP2;ratioP2;P2;SDS_P1;SDS_P2;PMS_P1;PMS_P2;Temp;Humidity;BMP_temperature;BMP_pressure;BME280_temperature;BME280_humidity;BME280_pressure;Samples;Min_cycle;Max_cycle;Signal;HPM_P1;HPM_P2
2021/07/15 00:02:24;;;;;;;16.77;12.48;;;;;;;24.02;58.51;99596.63;6154076;23;20382;-69
2021/07/15 00:04:49;;;;;;;16.88;12.57;;;;;;;23.97;58.67;99594.50;6183026;23;20007;-69
2021/07/15 00:07:16;;;;;;;18.15;13.10;;;;;;;23.99;58.76;99602.50;6183965;23;20009;-69
2021/07/15 00:09:42;;;;;;;17.85;12.77;;;;;;;23.94;58.65;99600.41;6157120;23;20001;-70
2021/07/15 00:12:11;;;;;;;14.70;12.57;;;;;;;23.75;58.51;99567.50;6156781;23;20055;-70
2021/07/15 00:14:36;;;;;;;21.00;13.13;;;;;;;23.89;59.01;99592.03;6183449;23;20032;-68
2021/07/15 00:17:03;;;;;;;21.73;13.30;;;;;;;23.89;59.01;99597.47;6184102;23;20005;-68
2021/07/15 00:19:29;;;;;;;17.02;13.70;;;;;;;23.86;59.35;99595.19;6157260;23;20013;-70
2021/07/15 00:21:57;;;;;;;15.52;13.00;;;;;;;23.85;59.26;99588.88;6183071;23;20036;-73
2021/07/15 00:24:24;;;;;;;16.10;12.77;;;;;;;23.83;59.27;99580.03;6183295;23;20020;-72
2021/07/15 00:26:50;;;;;;;17.17;13.13;;;;;;;23.83;59.75;99582.78;6183648;23;20093;-65
2021/07/15 00:29:15;;;;;;;20.92;13.25;;;;;;;23.81;59.15;99579.44;6183498;23;20036;-66
2021/07/15 00:31:42;;;;;;;18.55;13.10;;;;;;;23.78;59.11;99564.31;6183126;23;20060;-66
2021/07/15 00:34:09;;;;;;;19.73;12.80;;;;;;;23.67;59.35;99547.75;6183521;23;20004;-65
2021/07/15 00:36:35;;;;;;;20.80;13.18;;;;;;;23.79;59.42;99566.00;6183634;23;20054;-64
2021/07/15 00:39:00;;;;;;;15.10;12.80;;;;;;;23.80;58.98;99567.69;6183438;23;20084;-63
2021/07/15 00:41:26;;;;;;;20.75;13.77;;;;;;;23.86;59.10;99571.41;6182746;23;20428;-69
2021/07/15 00:43:52;;;;;;;18.20;12.80;;;;;;;23.83;58.91;99555.44;6182957;23;20005;-70
2021/07/15 00:46:17;;;;;;;19.90;13.57;;;;;;;23.88;58.86;99552.06;6182988;23;20009;-69
2021/07/15 00:48:43;;;;;;;19.83;13.73;;;;;;;23.84;58.50;99559.84;6183305;23;20004;-67
2021/07/15 00:51:09;;;;;;;18.70;12.43;;;;;;;23.81;58.54;99560.28;6183285;23;20005;-69
2021/07/15 00:53:36;;;;;;;20.88;14.02;;;;;;;23.82;59.02;99567.44;6183277;23;20012;-66
2021/07/15 00:56:02;;;;;;;22.40;13.50;;;;;;;23.76;58.91;99555.50;6183499;23;20001;-68
2021/07/15 00:58:29;;;;;;;21.55;13.60;;;;;;;23.81;59.30;99563.03;6183565;23;20001;-68
2021/07/15 01:00:55;;;;;;;16.83;12.80;;;;;;;23.79;59.58;99554.22;6183217;23;20016;-68
2021/07/15 01:03:22;;;;;;;22.70;13.05;;;;;;;23.82;59.25;99556.50;6182961;23;20005;-68
2021/07/15 01:05:53;;;;;;;19.92;12.60;;;;;;;23.86;59.26;99551.44;6182891;23;20031;-72
2021/07/15 01:08:19;;;;;;;19.15;13.02;;;;;;;23.78;59.39;99549.81;6156931;23;20005;-69
2021/07/15 01:10:50;;;;;;;22.83;13.52;;;;;;;23.84;59.21;99551.66;6182357;23;20071;-68
2021/07/15 01:13:40;;;;;;;23.05;13.23;;;;;;;23.90;59.44;99547.22;6182487;23;20316;-70
2021/07/15 01:16:27;;;;;;;17.92;13.70;;;;;;;23.98;59.02;99546.13;6183105;23;20024;-69
2021/07/15 01:18:58;;;;;;;16.17;12.70;;;;;;;23.93;59.25;99553.09;6156611;23;20916;-69
2021/07/15 01:22:01;;;;;;;16.90;13.13;;;;;;;24.02;59.14;99558.31;6182749;23;20012;-68
2021/07/15 01:24:51;;;;;;;22.08;13.38;;;;;;;24.00;59.05;99564.00;6183224;23;20016;-65
2021/07/15 01:27:40;;;;;;;20.88;13.80;;;;;;;24.02;59.30;99566.53;6182946;23;20071;-68
2021/07/15 01:30:09;;;;;;;22.33;14.93;;;;;;;24.06;59.70;99562.28;6182894;23;20009;-68
2021/07/15 01:32:57;;;;;;;22.20;16.17;;;;;;;24.15;59.10;99561.00;6183362;23;20036;-68
2021/07/15 01:35:31;;;;;;;17.98;14.88;;;;;;;24.12;59.53;99561.44;6183264;23;20016;-68
2021/07/15 01:37:59;;;;;;;23.95;15.50;;;;;;;24.05;60.13;99566.09;6156583;23;20009;-70
2021/07/15 01:40:31;;;;;;;23.60;16.08;;;;;;;24.02;60.41;99563.81;6183258;23;20005;-69
2021/07/15 01:43:01;;;;;;;23.98;17.02;;;;;;;24.03;60.55;99560.00;6183251;23;20345;-70
2021/07/15 01:45:29;;;;;;;27.45;18.10;;;;;;;24.06;60.69;99562.28;6182569;23;20001;-71
2021/07/15 01:47:55;;;;;;;23.30;17.50;;;;;;;24.03;60.77;99538.97;6182645;23;20012;-64
2021/07/15 01:50:20;;;;;;;26.13;17.30;;;;;;;24.08;60.85;99554.72;6182609;23;20001;-69
2021/07/15 01:52:49;;;;;;;25.30;17.27;;;;;;;24.08;61.04;99557.44;6182968;23;20032;-68
2021/07/15 01:55:15;;;;;;;23.17;17.02;;;;;;;24.05;61.16;99547.81;6182590;23;20102;-69
2021/07/15 01:57:43;;;;;;;23.98;17.45;;;;;;;24.04;61.03;99546.13;6182030;23;20005;-68
2021/07/15 02:00:09;;;;;;;26.73;16.95;;;;;;;23.91;61.25;99522.41;6182810;23;20084;-69
2021/07/15 02:02:35;;;;;;;23.42;16.60;;;;;;;24.14;60.60;99555.75;6183142;23;20427;-67
2021/07/15 02:05:02;;;;;;;21.90;16.65;;;;;;;24.17;60.78;99556.16;6183159;23;20001;-68
2021/07/15 02:07:29;;;;;;;22.77;16.48;;;;;;;24.14;60.56;99548.38;6182462;23;20308;-67
2021/07/15 02:09:56;;;;;;;27.45;17.30;;;;;;;24.14;60.71;99553.84;6182563;23;20319;-68
2021/07/15 02:12:22;;;;;;;23.83;17.35;;;;;;;24.13;60.82;99552.19;6182786;23;20007;-69
2021/07/15 02:14:52;;;;;;;19.98;15.75;;;;;;;24.12;61.07;99542.31;6182477;23;20012;-67
2021/07/15 02:17:19;;;;;;;28.50;17.13;;;;;;;24.05;61.22;99530.53;6182607;23;20084;-69
2021/07/15 02:19:47;;;;;;;21.58;17.55;;;;;;;24.26;60.47;99550.41;6182787;23;20013;-68
2021/07/15 02:22:13;;;;;;;23.48;18.55;;;;;;;24.32;60.46;99546.78;6182762;23;20016;-67
2021/07/15 02:24:39;;;;;;;24.25;17.38;;;;;;;24.38;60.22;99551.38;6182364;23;20009;-66
2021/07/15 02:27:07;;;;;;;22.58;17.90;;;;;;;24.51;59.92;99548.53;6181924;23;20009;-66
2021/07/15 02:29:35;;;;;;;26.25;20.20;;;;;;;24.61;59.24;99561.72;6156503;23;19998;-62
2021/07/15 02:32:09;;;;;;;23.27;19.27;;;;;;;24.55;58.54;99507.88;6182440;23;20085;-66
2021/07/15 02:34:52;;;;;;;26.95;20.20;;;;;;;25.03;58.56;99563.06;6181819;23;20005;-66
2021/07/15 02:37:22;;;;;;;25.20;18.70;;;;;;;25.19;57.97;99561.63;6182096;23;20009;-69
2021/07/15 02:39:48;;;;;;;26.75;18.23;;;;;;;25.36;57.17;99551.75;6182069;23;20139;-69
2021/07/15 02:42:13;;;;;;;20.73;18.00;;;;;;;25.62;56.40;99547.06;6182303;23;20001;-67
2021/07/15 02:44:39;;;;;;;22.42;19.67;;;;;;;25.79;55.90;99541.75;6155790;23;20009;-68
2021/07/15 02:47:09;;;;;;;24.42;18.45;;;;;;;26.04;55.20;99550.91;6181389;23;20386;-68
2021/07/15 02:49:35;;;;;;;24.20;18.77;;;;;;;26.14;55.07;99556.69;6182380;23;20482;-67
2021/07/15 02:52:00;;;;;;;22.25;19.10;;;;;;;26.10;54.31;99522.56;6182275;23;20025;-67
2021/07/15 02:54:26;;;;;;;29.38;20.70;;;;;;;26.33;54.45;99545.69;6182270;23;20072;-68
2021/07/15 02:56:51;;;;;;;28.17;20.38;;;;;;;26.42;53.99;99555.22;6181923;23;19997;-68
2021/07/15 03:00:10;;;;;;;24.67;20.52;;;;;;;26.57;54.02;99562.19;6181646;23;20253;-67
2021/07/15 03:02:47;;;;;;;29.73;21.33;;;;;;;26.56;53.81;99564.09;6096813;23;20335;-68
2021/07/15 03:05:21;;;;;;;30.88;21.58;;;;;;;26.54;54.00;99557.19;6184127;23;20435;-65
2021/07/15 03:08:24;;;;;;;29.40;21.23;;;;;;;26.67;53.31;99556.94;6183748;23;20036;-67
2021/07/15 03:10:54;;;;;;;28.23;21.88;;;;;;;26.50;53.68;99565.88;6107463;23;20009;-67
2021/07/15 03:13:20;;;;;;;31.70;22.23;;;;;;;26.50;53.20;99559.56;6184189;23;20008;-66
2021/07/15 03:15:45;;;;;;;26.23;21.88;;;;;;;26.61;52.99;99555.97;6183671;23;19998;-68
2021/07/15 03:18:17;;;;;;;25.27;20.52;;;;;;;26.84;52.42;99561.75;6184282;23;20013;-64
2021/07/15 03:20:44;;;;;;;26.20;19.60;;;;;;;26.98;52.06;99559.63;6184302;23;20024;-68
2021/07/15 03:23:13;;;;;;;26.65;20.10;;;;;;;27.13;51.66;99561.88;6183720;23;20036;-69
2021/07/15 03:25:46;;;;;;;29.13;21.80;;;;;;;27.08;51.50;99554.34;6183606;23;20005;-68
2021/07/15 03:28:14;;;;;;;26.65;20.88;;;;;;;27.06;51.99;99559.25;6184306;23;20013;-67
2021/07/15 03:30:40;;;;;;;27.70;20.98;;;;;;;27.07;51.81;99558.19;6183745;23;20084;-67
2021/07/15 03:33:08;;;;;;;28.63;21.92;;;;;;;27.07;52.16;99567.28;6157189;23;19997;-68
2021/07/15 03:35:34;;;;;;;28.38;20.40;;;;;;;27.34;51.21;99569.50;6183690;23;20008;-68
2021/07/15 03:38:03;;;;;;;27.60;20.23;;;;;;;27.56;50.56;99563.41;6184459;23;20001;-67
2021/07/15 03:40:29;;;;;;;28.23;20.98;;;;;;;27.72;49.92;99570.06;6184065;23;20008;-68
2021/07/15 03:42:56;;;;;;;26.08;21.75;;;;;;;27.67;49.51;99558.94;6183194;23;20004;-64
2021/07/15 03:45:23;;;;;;;23.02;20.60;;;;;;;27.65;50.03;99559.19;6157354;23;20088;-69
2021/07/15 03:47:53;;;;;;;23.63;20.38;;;;;;;28.02;48.89;99562.66;6184239;23;19997;-69
2021/07/15 03:50:24;;;;;;;23.92;19.20;;;;;;;28.77;47.03;99568.94;6183819;23;20012;-69
2021/07/15 03:52:52;;;;;;;25.42;18.35;;;;;;;29.65;44.87;99553.66;6183427;23;20031;-68
2021/07/15 03:55:22;;;;;;;22.10;19.13;;;;;;;30.54;42.50;99560.09;6183367;23;20423;-68
2021/07/15 03:57:49;;;;;;;26.55;18.98;;;;;;;31.33;40.67;99557.66;6183897;23;20013;-67
2021/07/15 04:00:15;;;;;;;26.40;19.52;;;;;;;32.07;38.47;99557.63;6183828;23;20091;-68
2021/07/15 04:02:42;;;;;;;24.33;20.10;;;;;;;32.68;37.18;99555.25;6156462;23;20001;-67
2021/07/15 04:05:08;;;;;;;26.88;20.45;;;;;;;33.17;36.41;99540.75;6183024;23;20436;-67
2021/07/15 04:07:34;;;;;;;23.88;20.75;;;;;;;33.82;35.40;99554.94;6184110;23;20008;-66
2021/07/15 04:10:00;;;;;;;24.75;19.38;;;;;;;34.48;33.74;99550.94;6184130;23;20020;-68
2021/07/15 04:12:28;;;;;;;25.75;19.98;;;;;;;35.20;32.88;99554.13;6183144;23;20462;-69
2021/07/15 04:15:06;;;;;;;22.63;18.00;;;;;;;36.05;31.26;99556.44;6156688;23;20013;-68
2021/07/15 04:17:54;;;;;;;22.75;18.92;;;;;;;36.81;30.75;99565.84;6184514;23;20013;-66
2021/07/15 04:20:22;;;;;;;27.75;20.75;;;;;;;37.10;29.57;99557.25;6183763;23;20009;-69
2021/07/15 04:22:51;;;;;;;23.55;20.95;;;;;;;37.44;29.04;99561.56;6183305;23;20096;-69
2021/07/15 04:25:20;;;;;;;26.15;20.58;;;;;;;37.83;28.07;99547.38;6183446;23;20305;-69
2021/07/15 04:27:49;;;;;;;23.30;19.17;;;;;;;38.28;27.92;99549.41;6183006;23;20331;-68
2021/07/15 04:30:15;;;;;;;25.23;18.73;;;;;;;38.80;26.92;99543.38;6157474;23;20036;-69
2021/07/15 04:33:08;;;;;;;27.70;20.35;;;;;;;39.62;26.33;99543.06;6183145;23;20059;-68
2021/07/15 04:35:34;;;;;;;23.33;19.35;;;;;;;40.17;24.69;99538.00;6182639;23;20382;-65
2021/07/15 04:38:01;;;;;;;24.60;20.58;;;;;;;40.55;23.90;99530.88;6183618;23;20005;-66
2021/07/15 04:40:28;;;;;;;22.08;19.88;;;;;;;40.99;23.14;99541.16;6183521;23;20277;-68
2021/07/15 04:42:59;;;;;;;26.23;20.58;;;;;;;41.31;23.26;99539.72;6182665;23;19997;-63
2021/07/15 04:45:26;;;;;;;25.85;20.70;;;;;;;41.48;22.19;99526.75;6156901;23;20088;-67
2021/07/15 04:47:53;;;;;;;22.92;20.63;;;;;;;41.94;21.99;99537.34;6182844;23;20008;-67
2021/07/15 04:50:22;;;;;;;25.88;20.27;;;;;;;42.40;21.26;99541.06;6183408;23;20423;-66
2021/07/15 04:52:51;;;;;;;22.88;20.45;;;;;;;42.73;21.15;99531.00;6156911;23;20008;-67
2021/07/15 04:55:20;;;;;;;22.05;19.77;;;;;;;42.92;20.49;99540.91;6157171;23;20084;-68
2021/07/15 04:57:48;;;;;;;22.05;19.33;;;;;;;42.82;20.81;99543.00;6182907;23;20001;-69
2021/07/15 05:00:15;;;;;;;25.02;20.35;;;;;;;43.03;19.91;99537.28;6183091;23;20043;-68
2021/07/15 05:02:41;;;;;;;23.95;19.88;;;;;;;43.48;19.54;99540.34;6182979;23;20498;-69
2021/07/15 05:05:10;;;;;;;22.58;20.30;;;;;;;44.17;19.06;99531.16;6156673;23;20001;-69
2021/07/15 05:07:36;;;;;;;25.92;21.33;;;;;;;44.67;18.16;99509.16;6182780;23;20327;-68
2021/07/15 05:10:10;;;;;;;24.75;20.98;;;;;;;45.36;17.69;99512.91;6183144;23;20005;-70
2021/07/15 05:12:36;;;;;;;22.37;20.27;;;;;;;45.94;16.93;99533.97;6182951;23;20009;-68
2021/07/15 05:15:07;;;;;;;24.08;18.88;;;;;;;46.17;16.80;99533.25;6183302;23;20060;-68
2021/07/15 05:17:34;;;;;;;21.98;19.83;;;;;;;46.25;16.14;99523.69;6182478;23;20256;-60
2021/07/15 05:20:00;;;;;;;24.20;18.73;;;;;;;46.38;16.39;99518.69;6182787;23;20013;-64
2021/07/15 05:22:26;;;;;;;21.55;19.20;;;;;;;46.63;15.96;99507.03;6183074;23;20348;-70
2021/07/15 05:24:52;;;;;;;21.30;19.05;;;;;;;46.93;15.88;99510.00;6182898;23;20013;-70
2021/07/15 05:27:17;;;;;;;21.52;18.95;;;;;;;46.98;15.57;99523.81;6182876;23;20016;-68
2021/07/15 05:29:43;;;;;;;24.98;18.23;;;;;;;47.46;15.39;99525.38;6182372;23;20009;-64
2021/07/15 05:32:09;;;;;;;22.33;19.75;;;;;;;48.10;14.25;99520.97;6182954;23;20005;-65
2021/07/15 05:34:35;;;;;;;22.05;19.73;;;;;;;48.47;13.98;99520.19;6182575;23;20059;-68
2021/07/15 05:37:02;;;;;;;21.10;18.85;;;;;;;49.19;13.85;99524.91;6182888;23;20005;-68
2021/07/15 05:39:27;;;;;;;23.75;20.13;;;;;;;49.28;13.03;99523.34;6156580;23;20080;-72
2021/07/15 05:41:53;;;;;;;19.80;17.73;;;;;;;49.56;13.12;99521.06;6182854;23;20379;-74
2021/07/15 05:44:19;;;;;;;21.67;18.58;;;;;;;49.74;13.02;99515.50;6182659;23;20001;-73
2021/07/15 05:46:44;;;;;;;23.98;18.80;;;;;;;50.20;12.82;99504.69;6182478;23;20009;-75
2021/07/15 05:49:10;;;;;;;25.08;18.77;;;;;;;50.60;12.23;99490.56;6182568;23;20004;-74
2021/07/15 05:51:35;;;;;;;23.45;20.13;;;;;;;51.20;11.58;99490.91;6183053;23;20001;-70
2021/07/15 05:54:01;;;;;;;23.15;17.55;;;;;;;51.74;11.65;99507.91;6183316;23;20371;-74
2021/07/15 05:56:27;;;;;;;25.42;19.20;;;;;;;51.82;11.12;99503.78;6182437;23;20041;-72
2021/07/15 05:58:52;;;;;;;22.80;18.83;;;;;;;52.04;10.79;99483.72;6182707;23;20843;-73
2021/07/15 06:01:19;;;;;;;21.35;18.13;;;;;;;52.45;10.83;99495.72;6156383;23;20021;-73
2021/07/15 06:03:45;;;;;;;24.48;20.40;;;;;;;52.18;10.83;99494.22;6183286;23;20024;-73
2021/07/15 06:06:10;;;;;;;20.83;18.60;;;;;;;52.14;10.91;99492.66;6182699;23;20012;-72
2021/07/15 06:08:36;;;;;;;22.27;20.20;;;;;;;51.85;10.82;99492.75;6156220;23;20483;-72
2021/07/15 06:11:02;;;;;;;24.85;21.48;;;;;;;51.79;10.69;99489.56;6182944;23;20004;-73
2021/07/15 06:13:28;;;;;;;20.65;18.45;;;;;;;51.95;10.80;99491.91;6183486;23;20011;-72
2021/07/15 06:15:54;;;;;;;22.20;19.92;;;;;;;52.71;10.51;99490.63;6156138;23;20082;-69
2021/07/15 06:18:20;;;;;;;22.65;18.83;;;;;;;53.31;9.68;99493.34;6154978;23;20064;-68
2021/07/15 06:20:45;;;;;;;23.98;21.42;;;;;;;53.32;9.57;99486.38;6181003;23;20021;-69
2021/07/15 06:23:11;;;;;;;26.02;19.33;;;;;;;53.30;9.75;99485.97;6154367;23;20368;-70
2021/07/15 06:25:36;;;;;;;21.95;19.73;;;;;;;53.31;9.70;99484.75;6182114;23;20343;-70
2021/07/15 06:28:02;;;;;;;24.45;22.02;;;;;;;53.14;9.56;99478.81;6182553;23;20664;-70
2021/07/15 06:30:28;;;;;;;22.58;17.77;;;;;;;53.30;9.58;99478.22;6183726;23;20324;-70
2021/07/15 06:32:54;;;;;;;20.63;18.52;;;;;;;53.63;8.79;99486.41;6183447;23;20076;-69
2021/07/15 06:35:22;;;;;;;20.90;17.92;;;;;;;53.85;8.81;99484.09;6182246;23;20004;-70
2021/07/15 06:37:53;;;;;;;22.35;19.75;;;;;;;54.18;9.06;99487.34;6183213;23;20009;-71
2021/07/15 06:40:20;;;;;;;21.75;18.80;;;;;;;53.93;8.87;99479.09;6184533;23;20108;-72
2021/07/15 06:42:46;;;;;;;20.33;18.30;;;;;;;54.15;8.96;99481.66;6184796;23;20001;-71
2021/07/15 06:45:13;;;;;;;20.88;17.83;;;;;;;54.26;8.40;99482.28;6191381;23;20061;-71
2021/07/15 06:47:39;;;;;;;23.95;19.10;;;;;;;54.38;8.37;99472.31;6194876;23;20008;-71
2021/07/15 06:50:08;;;;;;;21.42;18.02;;;;;;;54.70;8.67;99476.72;6184468;23;20016;-68
2021/07/15 06:52:35;;;;;;;19.55;17.50;;;;;;;54.65;8.13;99465.72;6183780;23;20001;-65
2021/07/15 06:55:02;;;;;;;19.98;16.02;;;;;;;54.69;8.19;99434.97;6183800;23;20009;-67
2021/07/15 06:57:31;;;;;;;20.30;17.25;;;;;;;54.96;7.93;99445.53;6182786;23;20101;-70
2021/07/15 06:59:56;;;;;;;22.52;16.05;;;;;;;55.07;7.55;99448.22;6182789;23;20383;-72
2021/07/15 07:02:23;;;;;;;18.73;16.20;;;;;;;55.07;7.83;99465.41;6156646;23;20029;-68
2021/07/15 07:04:49;;;;;;;19.25;15.77;;;;;;;55.15;7.64;99455.41;6182827;23;20032;-65
2021/07/15 07:07:14;;;;;;;17.60;15.93;;;;;;;55.27;7.57;99450.28;6182356;23;20001;-71
2021/07/15 07:09:40;;;;;;;20.95;16.08;;;;;;;55.59;7.84;99461.09;6182783;23;20016;-67
2021/07/15 07:12:06;;;;;;;18.70;16.92;;;;;;;55.79;7.36;99469.69;6183263;23;20095;-65
2021/07/15 07:14:32;;;;;;;21.88;17.52;;;;;;;55.53;7.23;99464.94;6184155;23;20297;-65
2021/07/15 07:16:57;;;;;;;18.48;16.70;;;;;;;55.58;7.32;99464.41;6183251;23;20456;-72
2021/07/15 07:19:23;;;;;;;23.45;17.27;;;;;;;55.50;7.25;99458.81;6184161;23;20017;-70
2021/07/15 07:21:49;;;;;;;22.10;17.25;;;;;;;55.66;7.67;99465.84;6183959;23;20416;-68
2021/07/15 07:24:14;;;;;;;18.58;16.65;;;;;;;55.85;7.36;99457.66;6183912;23;19997;-69
2021/07/15 07:26:40;;;;;;;18.42;16.25;;;;;;;55.81;7.58;99439.72;6157126;23;20403;-67
2021/07/15 07:29:06;;;;;;;20.75;16.98;;;;;;;56.14;7.02;99443.47;6156221;23;20005;-68
2021/07/15 07:31:32;;;;;;;20.60;16.10;;;;;;;56.26;7.06;99461.25;6182976;23;20001;-67
2021/07/15 07:33:57;;;;;;;19.17;17.13;;;;;;;56.39;7.17;99455.59;6156496;23;20315;-65
2021/07/15 07:36:23;;;;;;;20.00;17.67;;;;;;;56.19;6.83;99456.47;6182502;23;20023;-69
2021/07/15 07:38:49;;;;;;;19.08;17.17;;;;;;;56.21;6.84;99451.91;6183494;23;20001;-72
2021/07/15 07:41:14;;;;;;;19.10;17.15;;;;;;;56.03;7.24;99452.34;6183086;23;20043;-68
2021/07/15 07:43:40;;;;;;;20.85;18.65;;;;;;;55.74;7.36;99430.03;6182541;23;20005;-68
2021/07/15 07:46:05;;;;;;;19.77;17.67;;;;;;;55.92;7.21;99448.88;6178871;23;20008;-68
2021/07/15 07:48:31;;;;;;;20.48;18.52;;;;;;;55.78;6.97;99436.50;6180904;23;20001;-65
2021/07/15 07:50:58;;;;;;;18.98;16.88;;;;;;;55.69;7.10;99442.03;6182853;23;20005;-67
2021/07/15 07:53:28;;;;;;;19.45;17.30;;;;;;;56.24;6.91;99438.72;6183279;23;20009;-68
2021/07/15 07:55:54;;;;;;;18.67;16.73;;;;;;;56.53;6.75;99438.00;6182684;23;20013;-66
2021/07/15 07:58:22;;;;;;;18.70;16.83;;;;;;;56.87;6.67;99428.06;6182868;23;20008;-67
2021/07/15 08:00:48;;;;;;;19.45;17.75;;;;;;;56.79;6.15;99435.28;6183174;23;20001;-70
2021/07/15 08:03:17;;;;;;;17.55;15.73;;;;;;;56.82;6.20;99425.75;6183799;23;20013;-69
2021/07/15 08:05:47;;;;;;;18.15;16.52;;;;;;;56.77;6.74;99429.19;6184127;23;20004;-70
2021/07/15 08:08:14;;;;;;;17.08;15.25;;;;;;;56.49;6.15;99434.41;6183260;23;20009;-68
2021/07/15 08:10:40;;;;;;;16.33;14.63;;;;;;;55.96;6.20;99423.78;6181816;23;20005;-65
2021/07/15 08:13:06;;;;;;;14.55;13.35;;;;;;;55.60;6.83;99415.97;6178379;23;20483;-68
2021/07/15 08:15:31;;;;;;;14.10;12.80;;;;;;;55.28;6.64;99417.47;6157979;23;20033;-72
2021/07/15 08:17:57;;;;;;;15.13;13.68;;;;;;;54.77;7.22;99409.88;6184824;23;20013;-64
2021/07/15 08:20:23;;;;;;;15.60;13.32;;;;;;;54.05;7.57;99421.28;6184713;23;20009;-70
2021/07/15 08:22:48;;;;;;;14.43;12.88;;;;;;;53.32;8.16;99404.22;6184534;23;19997;-74
2021/07/15 08:25:14;;;;;;;13.75;12.32;;;;;;;52.22;9.09;99411.41;6184841;23;20052;-70
2021/07/15 08:27:40;;;;;;;13.57;11.65;;;;;;;50.01;10.37;99374.94;6185802;23;20040;-70
2021/07/15 08:30:13;;;;;;;16.00;11.27;;;;;;;47.95;12.21;99403.66;6184688;23;19997;-76
2021/07/15 08:32:39;;;;;;;16.33;10.75;;;;;;;46.12;13.63;99419.19;6158546;23;20453;-74
2021/07/15 08:35:06;;;;;;;11.25;10.15;;;;;;;44.42;15.10;99418.16;6183972;23;20084;-70
2021/07/15 08:37:32;;;;;;;12.70;10.85;;;;;;;42.99;16.46;99404.00;6184146;23;20009;-76
2021/07/15 08:39:58;;;;;;;13.35;10.52;;;;;;;41.85;18.05;99399.69;6157515;23;20055;-74
2021/07/15 08:42:25;;;;;;;16.65;11.10;;;;;;;40.89;18.64;99393.59;6184732;23;20087;-72
2021/07/15 08:44:53;;;;;;;16.38;12.07;;;;;;;40.26;20.06;99395.00;6158211;23;20064;-74
2021/07/15 08:47:18;;;;;;;15.98;11.70;;;;;;;39.83;21.44;99409.94;6184420;23;20079;-69
2021/07/15 08:49:45;;;;;;;16.40;11.98;;;;;;;39.49;21.20;99395.56;6184540;23;20051;-71
2021/07/15 08:52:14;;;;;;;12.30;10.50;;;;;;;39.31;20.80;99405.91;6184631;23;20012;-71
2021/07/15 08:57:15;;;;;;;12.95;11.48;;;;;;;38.90;21.86;99396.78;6184946;23;20087;-74
2021/07/15 08:59:41;;;;;;;11.00;9.45;;;;;;;38.65;21.95;99384.34;6183440;23;20013;-75
2021/07/15 09:02:06;;;;;;;11.85;8.85;;;;;;;38.51;21.72;99390.06;6183834;23;20075;-68
2021/07/15 09:04:32;;;;;;;9.82;8.82;;;;;;;38.36;21.99;99375.34;6184626;23;20106;-75
2021/07/15 09:06:57;;;;;;;11.43;9.30;;;;;;;38.28;21.84;99376.09;6184659;23;20076;-73
2021/07/15 09:09:23;;;;;;;15.60;9.88;;;;;;;38.00;22.38;99342.75;6184287;23;20012;-69
2021/07/15 09:11:48;;;;;;;13.55;10.07;;;;;;;38.17;22.52;99370.81;6183624;23;20005;-70
2021/07/15 09:14:17;;;;;;;10.25;9.35;;;;;;;38.10;21.76;99373.22;6184060;23;20013;-71
2021/07/15 09:16:54;;;;;;;10.77;9.75;;;;;;;38.12;21.42;99375.69;6183785;23;20013;-70
2021/07/15 09:19:22;;;;;;;10.82;9.82;;;;;;;37.89;21.93;99368.16;6184079;23;20020;-71
2021/07/15 09:21:48;;;;;;;12.23;10.40;;;;;;;37.72;23.09;99357.66;6157399;23;20016;-68
2021/07/15 09:24:36;;;;;;;12.43;11.05;;;;;;;37.80;22.37;99344.09;6183882;23;20049;-68
2021/07/15 09:27:28;;;;;;;11.68;10.48;;;;;;;37.62;22.48;99349.56;6183695;23;20470;-74
2021/07/15 09:30:14;;;;;;;12.70;11.40;;;;;;;37.20;22.95;99324.56;6176918;23;20012;-71
2021/07/15 09:32:54;;;;;;;12.90;10.02;;;;;;;37.23;23.41;99331.47;6184171;23;20009;-72
2021/07/15 09:35:31;;;;;;;11.90;10.75;;;;;;;37.33;23.33;99328.44;6184346;23;20005;-73
2021/07/15 09:38:10;;;;;;;13.23;11.52;;;;;;;37.31;23.80;99300.84;6132594;23;20008;-70
2021/07/15 09:40:48;;;;;;;11.90;10.73;;;;;;;37.52;23.82;99317.13;6158172;23;20004;-72
2021/07/15 09:43:32;;;;;;;11.38;10.18;;;;;;;37.44;23.58;99315.06;6184162;23;20037;-71
2021/07/15 09:46:01;;;;;;;11.75;10.70;;;;;;;36.94;24.02;99297.22;6183823;23;20043;-69
2021/07/15 09:48:29;;;;;;;17.50;11.77;;;;;;;36.80;24.33;99302.84;6183533;23;20067;-73
2021/07/15 09:51:00;;;;;;;14.93;10.90;;;;;;;36.82;24.28;99283.00;6183189;23;20001;-70
2021/07/15 09:53:30;;;;;;;11.30;10.10;;;;;;;36.94;23.89;99283.28;6184005;23;19997;-72
2021/07/15 09:56:00;;;;;;;13.13;10.40;;;;;;;37.15;23.61;99303.19;6183645;23;20384;-70
2021/07/15 09:58:32;;;;;;;13.02;10.43;;;;;;;37.30;23.33;99313.16;6181734;23;20005;-72
2021/07/15 10:01:09;;;;;;;10.85;9.93;;;;;;;37.31;22.89;99312.00;6183874;23;20008;-73
2021/07/15 10:03:36;;;;;;;12.73;10.65;;;;;;;37.09;23.04;99307.25;6184283;23;20001;-73
2021/07/15 10:06:02;;;;;;;11.07;10.02;;;;;;;36.92;23.29;99311.47;6183844;23;20040;-72
2021/07/15 10:08:34;;;;;;;11.32;9.77;;;;;;;36.79;22.92;99315.13;6183262;23;20307;-72
2021/07/15 10:11:24;;;;;;;12.93;10.30;;;;;;;36.70;23.33;99308.63;6183512;23;20144;-72
2021/07/15 10:14:04;;;;;;;11.55;9.60;;;;;;;36.51;23.08;99314.31;6183754;23;20051;-73
2021/07/15 10:16:32;;;;;;;13.20;10.38;;;;;;;36.16;24.26;99301.59;6132052;23;20423;-71
2021/07/15 10:18:59;;;;;;;11.25;10.15;;;;;;;35.98;24.79;99299.69;6183938;23;20012;-72
2021/07/15 10:21:30;;;;;;;10.93;9.60;;;;;;;35.80;24.87;99299.47;6183273;23;20519;-72
2021/07/15 10:23:57;;;;;;;11.85;10.00;;;;;;;35.50;25.45;99296.88;6183678;23;20020;-70
2021/07/15 10:26:24;;;;;;;12.30;10.77;;;;;;;35.12;26.03;99274.66;6157302;23;20005;-73
2021/07/15 10:28:51;;;;;;;11.75;10.65;;;;;;;34.98;25.99;99294.03;6157680;23;20078;-73
2021/07/15 10:31:19;;;;;;;14.35;10.90;;;;;;;34.84;26.31;99301.47;6157389;23;20076;-69
2021/07/15 10:33:46;;;;;;;16.15;11.00;;;;;;;34.56;27.46;99304.06;6183516;23;20035;-72
2021/07/15 10:36:12;;;;;;;13.02;11.07;;;;;;;34.41;27.87;99316.97;6183121;23;20031;-70
2021/07/15 10:38:41;;;;;;;23.63;9.27;;;;;;;34.06;28.36;99332.91;6183752;23;20005;-71
2021/07/15 10:41:09;;;;;;;20.25;8.85;;;;;;;33.35;29.43;99317.34;6183361;23;20364;-72
2021/07/15 10:43:36;;;;;;;18.13;7.93;;;;;;;32.96;30.77;99370.84;6183704;23;20012;-71
2021/07/15 10:46:04;;;;;;;25.33;7.75;;;;;;;32.40;33.67;99399.53;6183606;23;20343;-73
2021/07/15 10:48:32;;;;;;;27.40;8.65;;;;;;;31.67;37.28;99420.81;6156721;23;20005;-72
2021/07/15 10:51:00;;;;;;;18.58;10.18;;;;;;;30.88;40.19;99435.47;6183753;23;20013;-72
2021/07/15 10:53:27;;;;;;;10.43;8.30;;;;;;;29.38;43.63;99443.28;6183747;23;20001;-74
2021/07/15 10:55:54;;;;;;;7.45;6.57;;;;;;;27.81;44.36;99441.22;6183486;23;20095;-72
2021/07/15 10:58:48;;;;;;;10.70;6.50;;;;;;;27.32;43.69;99427.91;6183757;23;19997;-72
2021/07/15 11:01:41;;;;;;;11.05;8.90;;;;;;;27.08;45.61;99411.47;6183997;23;20088;-71
2021/07/15 11:04:30;;;;;;;9.70;8.65;;;;;;;27.03;46.06;99425.97;6157195;23;20005;-72
2021/07/15 11:06:57;;;;;;;16.15;10.60;;;;;;;26.73;52.44;99426.09;6181798;23;20109;-73
2021/07/15 11:09:30;;;;;;;15.70;11.43;;;;;;;26.69;53.51;99423.00;6157892;23;20088;-72
2021/07/15 11:12:01;;;;;;;21.48;11.23;;;;;;;26.33;55.02;99395.56;6183993;23;20005;-72
2021/07/15 11:14:49;;;;;;;23.45;11.73;;;;;;;26.34;56.42;99429.34;6183419;23;20013;-73
2021/07/15 11:17:20;;;;;;;18.42;12.02;;;;;;;26.05;58.37;99426.44;6183494;23;20009;-72
2021/07/15 11:20:07;;;;;;;16.73;11.80;;;;;;;25.94;58.61;99450.84;6183875;23;20088;-72
2021/07/15 11:22:37;;;;;;;21.27;12.00;;;;;;;25.60;61.55;99458.72;6184282;23;20008;-73
2021/07/15 11:25:11;;;;;;;20.27;10.68;;;;;;;25.43;60.82;99476.84;6185450;23;20438;-71
2021/07/15 11:27:43;;;;;;;15.73;10.88;;;;;;;25.23;61.36;99486.16;6185386;23;20032;-72
2021/07/15 11:30:12;;;;;;;14.57;9.85;;;;;;;25.15;62.61;99524.81;6185685;23;20044;-72
2021/07/15 11:32:38;;;;;;;13.65;9.63;;;;;;;25.00;61.48;99503.28;6185010;23;20009;-70